sensor_id;sensor_type;location;lat;lon;timestamp;P1;durP1;ratioP1;P2;durP2;ratioP2
71806;SDS011;59655;42.590;23.364;2022-08-23T00:02:12;46.10;;;22.40;;
71806;SDS011;59655;42.590;23.364;2022-08-23T00:04:41;38.80;;;20.45;;
71806;SDS011;59655;42.590;23.364;2022-08-23T00:07:11;36.13;;;19.02;;
71806;SDS011;59655;42.590;23.364;2022-08-23T00:09:42;36.55;;;19.30;;
71806;SDS011;59655;42.590;23.364;2022-08-23T00:12:16;34.20;;;19.75;;
71806;SDS011;59655;42.590;23.364;2022-08-23T00:14:49;36.55;;;19.20;;
71806;SDS011;59655;42.590;23.364;2022-08-23T00:17:18;32.25;;;19.00;;
71806;SDS011;59655;42.590;23.364;2022-08-23T00:19:45;38.25;;;18.52;;
71806;SDS011;59655;42.590;23.364;2022-08-23T00:22:13;34.60;;;18.92;;
71806;SDS011;59655;42.590;23.364;2022-08-23T00:24:39;35.72;;;19.40;;
71806;SDS011;59655;42.590;23.364;2022-08-23T00:27:13;35.58;;;19.17;;
71806;SDS011;59655;42.590;23.364;2022-08-23T00:29:50;35.10;;;19.33;;
71806;SDS011;59655;42.590;23.364;2022-08-23T00:32:40;35.15;;;19.45;;
71806;SDS011;59655;42.590;23.364;2022-08-23T00:35:15;36.13;;;19.25;;
71806;SDS011;59655;42.590;23.364;2022-08-23T00:37:42;36.53;;;18.83;;
71806;SDS011;59655;42.590;23.364;2022-08-23T00:40:16;33.90;;;19.48;;
71806;SDS011;59655;42.590;23.364;2022-08-23T00:42:53;33.22;;;18.85;;
71806;SDS011;59655;42.590;23.364;2022-08-23T00:49:03;36.42;;;19.60;;
71806;SDS011;59655;42.590;23.364;2022-08-23T00:51:33;34.65;;;19.17;;
71806;SDS011;59655;42.590;23.364;2022-08-23T00:54:24;34.13;;;19.38;;
71806;SDS011;59655;42.590;23.364;2022-08-23T00:56:52;36.70;;;19.70;;
71806;SDS011;59655;42.590;23.364;2022-08-23T00:59:23;33.35;;;18.52;;
71806;SDS011;59655;42.590;23.364;2022-08-23T01:01:50;32.58;;;19.20;;
71806;SDS011;59655;42.590;23.364;2022-08-23T01:04:26;32.67;;;17.13;;
71806;SDS011;59655;42.590;23.364;2022-08-23T01:07:06;33.55;;;17.25;;
71806;SDS011;59655;42.590;23.364;2022-08-23T01:09:44;33.85;;;18.88;;
71806;SDS011;59655;42.590;23.364;2022-08-23T01:12:17;37.55;;;18.52;;
71806;SDS011;59655;42.590;23.364;2022-08-23T01:15:04;34.22;;;18.13;;
71806;SDS011;59655;42.590;23.364;2022-08-23T01:18:25;32.97;;;17.67;;
71806;SDS011;59655;42.590;23.364;2022-08-23T01:23:48;29.00;;;17.67;;
71806;SDS011;59655;42.590;23.364;2022-08-23T01:26:17;32.55;;;17.00;;
71806;SDS011;59655;42.590;23.364;2022-08-23T01:28:51;31.13;;;17.48;;
71806;SDS011;59655;42.590;23.364;2022-08-23T01:31:24;28.25;;;16.27;;
71806;SDS011;59655;42.590;23.364;2022-08-23T01:33:56;32.08;;;17.33;;
71806;SDS011;59655;42.590;23.364;2022-08-23T01:36:37;28.75;;;17.30;;
71806;SDS011;59655;42.590;23.364;2022-08-23T01:39:10;29.88;;;16.50;;
71806;SDS011;59655;42.590;23.364;2022-08-23T01:41:44;32.40;;;16.70;;
71806;SDS011;59655;42.590;23.364;2022-08-23T01:44:13;33.67;;;17.10;;
71806;SDS011;59655;42.590;23.364;2022-08-23T01:46:49;31.63;;;16.77;;
71806;SDS011;59655;42.590;23.364;2022-08-23T01:49:17;29.88;;;15.60;;
71806;SDS011;59655;42.590;23.364;2022-08-23T01:51:53;26.55;;;15.90;;
71806;SDS011;59655;42.590;23.364;2022-08-23T01:54:30;28.40;;;15.98;;
71806;SDS011;59655;42.590;23.364;2022-08-23T01:56:58;30.27;;;16.08;;
71806;SDS011;59655;42.590;23.364;2022-08-23T01:59:44;30.70;;;17.35;;
71806;SDS011;59655;42.590;23.364;2022-08-23T02:02:11;33.15;;;16.95;;
71806;SDS011;59655;42.590;23.364;2022-08-23T02:04:42;31.17;;;16.77;;
71806;SDS011;59655;42.590;23.364;2022-08-23T02:07:12;28.33;;;16.08;;
71806;SDS011;59655;42.590;23.364;2022-08-23T02:09:43;36.38;;;17.35;;
71806;SDS011;59655;42.590;23.364;2022-08-23T02:12:10;34.40;;;18.05;;
71806;SDS011;59655;42.590;23.364;2022-08-23T02:14:39;33.05;;;17.58;;
71806;SDS011;59655;42.590;23.364;2022-08-23T02:17:06;34.58;;;20.85;;
71806;SDS011;59655;42.590;23.364;2022-08-23T02:19:35;32.90;;;17.73;;
71806;SDS011;59655;42.590;23.364;2022-08-23T02:22:06;32.42;;;18.02;;
71806;SDS011;59655;42.590;23.364;2022-08-23T02:24:41;37.08;;;18.35;;
71806;SDS011;59655;42.590;23.364;2022-08-23T02:27:13;31.45;;;16.80;;
71806;SDS011;59655;42.590;23.364;2022-08-23T02:29:43;31.88;;;17.40;;
71806;SDS011;59655;42.590;23.364;2022-08-23T02:32:18;27.85;;;16.42;;
71806;SDS011;59655;42.590;23.364;2022-08-23T02:34:53;28.13;;;15.07;;
71806;SDS011;59655;42.590;23.364;2022-08-23T02:37:20;28.08;;;14.80;;
71806;SDS011;59655;42.590;23.364;2022-08-23T02:39:45;22.77;;;13.95;;
71806;SDS011;59655;42.590;23.364;2022-08-23T02:42:16;27.02;;;13.27;;
71806;SDS011;59655;42.590;23.364;2022-08-23T02:44:48;21.23;;;12.60;;
71806;SDS011;59655;42.590;23.364;2022-08-23T02:47:14;19.73;;;12.27;;
71806;SDS011;59655;42.590;23.364;2022-08-23T02:49:39;22.80;;;12.88;;
71806;SDS011;59655;42.590;23.364;2022-08-23T02:52:22;22.13;;;12.85;;
71806;SDS011;59655;42.590;23.364;2022-08-23T02:54:54;23.70;;;12.30;;
71806;SDS011;59655;42.590;23.364;2022-08-23T02:57:22;24.92;;;12.07;;
71806;SDS011;59655;42.590;23.364;2022-08-23T02:59:51;22.35;;;11.95;;
71806;SDS011;59655;42.590;23.364;2022-08-23T03:02:23;16.67;;;9.95;;
71806;SDS011;59655;42.590;23.364;2022-08-23T03:04:53;20.75;;;10.48;;
71806;SDS011;59655;42.590;23.364;2022-08-23T03:07:22;17.35;;;10.25;;
71806;SDS011;59655;42.590;23.364;2022-08-23T03:12:22;19.05;;;9.48;;
71806;SDS011;59655;42.590;23.364;2022-08-23T03:14:50;17.33;;;9.68;;
71806;SDS011;59655;42.590;23.364;2022-08-23T03:17:20;16.17;;;9.40;;
71806;SDS011;59655;42.590;23.364;2022-08-23T03:19:47;16.35;;;10.40;;
71806;SDS011;59655;42.590;23.364;2022-08-23T03:22:17;16.15;;;10.02;;
71806;SDS011;59655;42.590;23.364;2022-08-23T03:24:47;16.08;;;9.73;;
71806;SDS011;59655;42.590;23.364;2022-08-23T03:27:15;18.08;;;10.30;;
71806;SDS011;59655;42.590;23.364;2022-08-23T03:29:41;15.75;;;9.32;;
71806;SDS011;59655;42.590;23.364;2022-08-23T03:32:11;16.98;;;8.15;;
71806;SDS011;59655;42.590;23.364;2022-08-23T03:34:45;12.95;;;6.53;;
71806;SDS011;59655;42.590;23.364;2022-08-23T03:37:12;16.08;;;8.02;;
71806;SDS011;59655;42.590;23.364;2022-08-23T03:39:44;14.05;;;7.85;;
71806;SDS011;59655;42.590;23.364;2022-08-23T03:42:10;14.05;;;9.00;;
71806;SDS011;59655;42.590;23.364;2022-08-23T03:44:36;17.00;;;8.82;;
71806;SDS011;59655;42.590;23.364;2022-08-23T03:47:04;19.15;;;9.15;;
71806;SDS011;59655;42.590;23.364;2022-08-23T03:49:30;17.75;;;9.10;;
71806;SDS011;59655;42.590;23.364;2022-08-23T03:51:59;18.50;;;9.80;;
71806;SDS011;59655;42.590;23.364;2022-08-23T03:54:27;15.38;;;9.10;;
71806;SDS011;59655;42.590;23.364;2022-08-23T03:56:57;17.58;;;9.55;;
71806;SDS011;59655;42.590;23.364;2022-08-23T03:59:29;17.92;;;9.88;;
71806;SDS011;59655;42.590;23.364;2022-08-23T04:01:58;18.58;;;10.02;;
71806;SDS011;59655;42.590;23.364;2022-08-23T04:04:24;16.73;;;9.13;;
71806;SDS011;59655;42.590;23.364;2022-08-23T04:06:49;18.33;;;9.50;;
71806;SDS011;59655;42.590;23.364;2022-08-23T04:09:15;12.90;;;7.90;;
71806;SDS011;59655;42.590;23.364;2022-08-23T04:11:41;15.95;;;9.55;;
71806;SDS011;59655;42.590;23.364;2022-08-23T04:14:07;18.65;;;9.15;;
71806;SDS011;59655;42.590;23.364;2022-08-23T04:16:33;16.80;;;8.82;;
71806;SDS011;59655;42.590;23.364;2022-08-23T04:19:03;14.23;;;8.95;;
71806;SDS011;59655;42.590;23.364;2022-08-23T04:23:55;15.95;;;8.90;;
71806;SDS011;59655;42.590;23.364;2022-08-23T04:26:20;14.55;;;8.77;;
71806;SDS011;59655;42.590;23.364;2022-08-23T04:28:51;15.32;;;8.38;;
71806;SDS011;59655;42.590;23.364;2022-08-23T04:31:26;16.65;;;8.32;;
71806;SDS011;59655;42.590;23.364;2022-08-23T04:34:01;13.07;;;8.05;;
71806;SDS011;59655;42.590;23.364;2022-08-23T04:36:38;20.42;;;8.70;;
71806;SDS011;59655;42.590;23.364;2022-08-23T04:39:23;16.67;;;9.23;;
71806;SDS011;59655;42.590;23.364;2022-08-23T04:41:48;15.63;;;9.15;;
71806;SDS011;59655;42.590;23.364;2022-08-23T04:44:37;14.90;;;8.15;;
71806;SDS011;59655;42.590;23.364;2022-08-23T04:47:12;15.30;;;8.05;;
71806;SDS011;59655;42.590;23.364;2022-08-23T04:49:39;16.92;;;9.27;;
71806;SDS011;59655;42.590;23.364;2022-08-23T04:52:06;17.17;;;9.43;;
71806;SDS011;59655;42.590;23.364;2022-08-23T04:54:33;19.02;;;10.93;;
71806;SDS011;59655;42.590;23.364;2022-08-23T04:57:06;21.58;;;11.98;;
71806;SDS011;59655;42.590;23.364;2022-08-23T04:59:35;20.17;;;12.30;;
71806;SDS011;59655;42.590;23.364;2022-08-23T05:02:00;20.95;;;11.27;;
71806;SDS011;59655;42.590;23.364;2022-08-23T05:04:30;22.48;;;11.00;;
71806;SDS011;59655;42.590;23.364;2022-08-23T05:06:57;21.08;;;11.23;;
71806;SDS011;59655;42.590;23.364;2022-08-23T05:09:30;20.52;;;11.43;;
71806;SDS011;59655;42.590;23.364;2022-08-23T05:12:03;19.60;;;10.73;;
71806;SDS011;59655;42.590;23.364;2022-08-23T05:14:31;20.10;;;10.60;;
71806;SDS011;59655;42.590;23.364;2022-08-23T05:16:57;17.02;;;10.27;;
71806;SDS011;59655;42.590;23.364;2022-08-23T05:19:33;16.25;;;9.45;;
71806;SDS011;59655;42.590;23.364;2022-08-23T05:22:00;17.95;;;9.80;;
71806;SDS011;59655;42.590;23.364;2022-08-23T05:24:31;20.30;;;11.30;;
71806;SDS011;59655;42.590;23.364;2022-08-23T05:27:11;26.13;;;14.10;;
71806;SDS011;59655;42.590;23.364;2022-08-23T05:29:38;29.23;;;14.57;;
71806;SDS011;59655;42.590;23.364;2022-08-23T05:32:09;26.27;;;14.57;;
71806;SDS011;59655;42.590;23.364;2022-08-23T05:34:45;28.48;;;15.55;;
71806;SDS011;59655;42.590;23.364;2022-08-23T05:37:16;29.55;;;16.08;;
71806;SDS011;59655;42.590;23.364;2022-08-23T05:39:41;23.38;;;13.90;;
71806;SDS011;59655;42.590;23.364;2022-08-23T05:42:11;28.00;;;15.25;;
71806;SDS011;59655;42.590;23.364;2022-08-23T05:44:42;30.52;;;15.85;;
71806;SDS011;59655;42.590;23.364;2022-08-23T05:47:41;34.53;;;15.70;;
71806;SDS011;59655;42.590;23.364;2022-08-23T05:50:11;34.13;;;17.42;;
71806;SDS011;59655;42.590;23.364;2022-08-23T05:52:40;30.42;;;16.83;;
71806;SDS011;59655;42.590;23.364;2022-08-23T05:55:07;30.73;;;14.77;;
71806;SDS011;59655;42.590;23.364;2022-08-23T05:57:33;29.90;;;14.73;;
71806;SDS011;59655;42.590;23.364;2022-08-23T06:00:05;33.72;;;15.68;;
71806;SDS011;59655;42.590;23.364;2022-08-23T06:02:35;33.85;;;16.23;;
71806;SDS011;59655;42.590;23.364;2022-08-23T06:05:08;34.72;;;18.13;;
71806;SDS011;59655;42.590;23.364;2022-08-23T06:07:36;33.65;;;17.30;;
71806;SDS011;59655;42.590;23.364;2022-08-23T06:10:12;38.60;;;18.08;;
71806;SDS011;59655;42.590;23.364;2022-08-23T06:12:46;32.00;;;16.20;;
71806;SDS011;59655;42.590;23.364;2022-08-23T06:15:59;36.08;;;17.73;;
71806;SDS011;59655;42.590;23.364;2022-08-23T06:18:26;33.28;;;16.05;;
71806;SDS011;59655;42.590;23.364;2022-08-23T06:20:59;30.60;;;16.42;;
71806;SDS011;59655;42.590;23.364;2022-08-23T06:23:28;31.55;;;16.65;;
71806;SDS011;59655;42.590;23.364;2022-08-23T06:25:55;33.00;;;16.25;;
71806;SDS011;59655;42.590;23.364;2022-08-23T06:28:39;38.00;;;17.83;;
71806;SDS011;59655;42.590;23.364;2022-08-23T06:31:05;35.08;;;18.02;;
71806;SDS011;59655;42.590;23.364;2022-08-23T06:33:30;40.28;;;17.67;;
71806;SDS011;59655;42.590;23.364;2022-08-23T06:36:06;37.33;;;17.98;;
71806;SDS011;59655;42.590;23.364;2022-08-23T06:38:41;35.75;;;17.95;;
71806;SDS011;59655;42.590;23.364;2022-08-23T06:41:11;34.47;;;18.15;;
71806;SDS011;59655;42.590;23.364;2022-08-23T06:43:38;33.90;;;16.75;;
71806;SDS011;59655;42.590;23.364;2022-08-23T06:46:11;34.75;;;17.35;;
71806;SDS011;59655;42.590;23.364;2022-08-23T06:48:44;36.47;;;19.73;;
71806;SDS011;59655;42.590;23.364;2022-08-23T06:51:14;34.92;;;18.77;;
71806;SDS011;59655;42.590;23.364;2022-08-23T06:53:49;36.08;;;17.77;;
71806;SDS011;59655;42.590;23.364;2022-08-23T07:10:59;38.63;;;20.23;;
71806;SDS011;59655;42.590;23.364;2022-08-23T07:13:27;35.40;;;19.50;;
71806;SDS011;59655;42.590;23.364;2022-08-23T07:15:58;39.13;;;20.48;;
71806;SDS011;59655;42.590;23.364;2022-08-23T07:18:30;33.38;;;19.67;;
71806;SDS011;59655;42.590;23.364;2022-08-23T07:21:08;38.30;;;21.08;;
71806;SDS011;59655;42.590;23.364;2022-08-23T07:24:01;36.40;;;20.05;;
71806;SDS011;59655;42.590;23.364;2022-08-23T07:26:28;40.97;;;21.83;;
71806;SDS011;59655;42.590;23.364;2022-08-23T07:28:54;34.65;;;20.25;;
71806;SDS011;59655;42.590;23.364;2022-08-23T07:31:22;37.90;;;20.98;;
71806;SDS011;59655;42.590;23.364;2022-08-23T07:33:57;35.83;;;20.95;;
71806;SDS011;59655;42.590;23.364;2022-08-23T07:36:26;38.78;;;21.10;;
71806;SDS011;59655;42.590;23.364;2022-08-23T07:39:08;39.55;;;20.10;;
71806;SDS011;59655;42.590;23.364;2022-08-23T07:41:42;37.78;;;20.83;;
71806;SDS011;59655;42.590;23.364;2022-08-23T07:44:13;39.90;;;21.58;;
71806;SDS011;59655;42.590;23.364;2022-08-23T07:46:42;37.83;;;21.33;;
71806;SDS011;59655;42.590;23.364;2022-08-23T07:49:08;45.97;;;21.27;;
71806;SDS011;59655;42.590;23.364;2022-08-23T07:51:35;40.70;;;22.20;;
71806;SDS011;59655;42.590;23.364;2022-08-23T07:54:03;35.58;;;20.35;;
71806;SDS011;59655;42.590;23.364;2022-08-23T07:58:55;39.78;;;18.67;;
71806;SDS011;59655;42.590;23.364;2022-08-23T08:01:24;38.47;;;19.92;;
71806;SDS011;59655;42.590;23.364;2022-08-23T08:03:53;34.90;;;18.35;;
71806;SDS011;59655;42.590;23.364;2022-08-23T08:06:31;33.58;;;18.38;;
71806;SDS011;59655;42.590;23.364;2022-08-23T08:08:59;29.33;;;17.52;;
71806;SDS011;59655;42.590;23.364;2022-08-23T08:11:25;33.58;;;17.73;;
71806;SDS011;59655;42.590;23.364;2022-08-23T08:16:30;38.53;;;19.73;;
71806;SDS011;59655;42.590;23.364;2022-08-23T08:19:13;35.25;;;19.20;;
71806;SDS011;59655;42.590;23.364;2022-08-23T08:21:41;32.38;;;17.02;;
71806;SDS011;59655;42.590;23.364;2022-08-23T08:24:11;37.53;;;19.13;;
71806;SDS011;59655;42.590;23.364;2022-08-23T08:26:40;32.15;;;16.67;;
71806;SDS011;59655;42.590;23.364;2022-08-23T08:29:08;37.45;;;19.67;;
71806;SDS011;59655;42.590;23.364;2022-08-23T08:34:03;38.47;;;18.73;;
71806;SDS011;59655;42.590;23.364;2022-08-23T08:36:36;39.35;;;20.05;;
71806;SDS011;59655;42.590;23.364;2022-08-23T08:39:15;32.50;;;18.23;;
71806;SDS011;59655;42.590;23.364;2022-08-23T08:44:46;40.88;;;21.08;;
71806;SDS011;59655;42.590;23.364;2022-08-23T08:52:35;35.55;;;20.67;;
71806;SDS011;59655;42.590;23.364;2022-08-23T08:55:13;37.63;;;19.95;;
71806;SDS011;59655;42.590;23.364;2022-08-23T08:57:45;36.58;;;20.67;;
71806;SDS011;59655;42.590;23.364;2022-08-23T09:00:19;38.95;;;19.35;;
71806;SDS011;59655;42.590;23.364;2022-08-23T09:02:50;35.63;;;18.73;;
71806;SDS011;59655;42.590;23.364;2022-08-23T09:05:17;39.60;;;20.42;;
71806;SDS011;59655;42.590;23.364;2022-08-23T09:10:52;37.78;;;19.88;;
71806;SDS011;59655;42.590;23.364;2022-08-23T09:13:30;35.50;;;19.17;;
71806;SDS011;59655;42.590;23.364;2022-08-23T09:18:44;34.22;;;18.15;;
71806;SDS011;59655;42.590;23.364;2022-08-23T09:21:10;34.75;;;17.67;;
71806;SDS011;59655;42.590;23.364;2022-08-23T09:23:43;33.00;;;18.15;;
71806;SDS011;59655;42.590;23.364;2022-08-23T09:26:43;30.88;;;17.33;;
71806;SDS011;59655;42.590;23.364;2022-08-23T09:29:15;32.55;;;16.08;;
71806;SDS011;59655;42.590;23.364;2022-08-23T09:32:26;30.15;;;16.02;;
71806;SDS011;59655;42.590;23.364;2022-08-23T09:35:15;28.50;;;16.08;;
71806;SDS011;59655;42.590;23.364;2022-08-23T09:38:14;28.25;;;16.15;;
71806;SDS011;59655;42.590;23.364;2022-08-23T09:40:54;28.10;;;15.27;;
71806;SDS011;59655;42.590;23.364;2022-08-23T09:43:22;31.92;;;15.93;;
71806;SDS011;59655;42.590;23.364;2022-08-23T09:48:32;25.85;;;15.30;;
71806;SDS011;59655;42.590;23.364;2022-08-23T09:51:28;27.13;;;15.45;;
71806;SDS011;59655;42.590;23.364;2022-08-23T09:54:04;26.92;;;15.55;;
71806;SDS011;59655;42.590;23.364;2022-08-23T09:56:36;31.75;;;16.30;;
71806;SDS011;59655;42.590;23.364;2022-08-23T10:01:57;31.77;;;16.35;;
71806;SDS011;59655;42.590;23.364;2022-08-23T10:07:19;26.50;;;15.82;;
71806;SDS011;59655;42.590;23.364;2022-08-23T10:09:45;32.83;;;17.15;;
71806;SDS011;59655;42.590;23.364;2022-08-23T10:12:10;28.58;;;16.30;;
71806;SDS011;59655;42.590;23.364;2022-08-23T10:14:35;25.95;;;15.68;;
71806;SDS011;59655;42.590;23.364;2022-08-23T10:22:19;32.58;;;16.58;;
71806;SDS011;59655;42.590;23.364;2022-08-23T10:24:58;32.72;;;16.67;;
71806;SDS011;59655;42.590;23.364;2022-08-23T10:27:55;26.92;;;16.25;;
71806;SDS011;59655;42.590;23.364;2022-08-23T10:36:28;26.98;;;15.45;;
71806;SDS011;59655;42.590;23.364;2022-08-23T10:39:05;29.70;;;16.23;;
71806;SDS011;59655;42.590;23.364;2022-08-23T10:41:49;27.83;;;15.95;;
71806;SDS011;59655;42.590;23.364;2022-08-23T10:44:21;25.73;;;14.05;;
71806;SDS011;59655;42.590;23.364;2022-08-23T10:49:49;23.92;;;13.35;;
71806;SDS011;59655;42.590;23.364;2022-08-23T10:52:31;28.70;;;13.30;;
71806;SDS011;59655;42.590;23.364;2022-08-23T10:55:03;25.55;;;13.23;;
71806;SDS011;59655;42.590;23.364;2022-08-23T10:57:41;22.58;;;14.82;;
71806;SDS011;59655;42.590;23.364;2022-08-23T11:02:56;25.65;;;13.63;;
71806;SDS011;59655;42.590;23.364;2022-08-23T11:05:43;24.35;;;14.23;;
71806;SDS011;59655;42.590;23.364;2022-08-23T11:08:46;23.95;;;14.00;;
71806;SDS011;59655;42.590;23.364;2022-08-23T11:14:26;19.40;;;12.27;;
71806;SDS011;59655;42.590;23.364;2022-08-23T11:17:03;24.80;;;13.02;;
71806;SDS011;59655;42.590;23.364;2022-08-23T11:30:48;22.10;;;13.80;;
71806;SDS011;59655;42.590;23.364;2022-08-23T11:33:42;22.95;;;13.52;;
71806;SDS011;59655;42.590;23.364;2022-08-23T11:36:29;24.40;;;13.57;;
71806;SDS011;59655;42.590;23.364;2022-08-23T11:41:34;23.00;;;14.65;;
71806;SDS011;59655;42.590;23.364;2022-08-23T11:44:32;24.73;;;15.25;;
71806;SDS011;59655;42.590;23.364;2022-08-23T11:47:10;24.52;;;14.73;;
71806;SDS011;59655;42.590;23.364;2022-08-23T11:49:55;28.15;;;14.45;;
71806;SDS011;59655;42.590;23.364;2022-08-23T11:52:34;25.90;;;14.30;;
71806;SDS011;59655;42.590;23.364;2022-08-23T11:58:16;21.13;;;14.10;;
71806;SDS011;59655;42.590;23.364;2022-08-23T12:08:47;24.77;;;13.52;;
71806;SDS011;59655;42.590;23.364;2022-08-23T12:11:20;19.70;;;13.13;;
71806;SDS011;59655;42.590;23.364;2022-08-23T12:21:22;21.88;;;12.38;;
71806;SDS011;59655;42.590;23.364;2022-08-23T12:23:49;19.52;;;12.57;;
71806;SDS011;59655;42.590;23.364;2022-08-23T12:39:55;21.70;;;12.30;;
71806;SDS011;59655;42.590;23.364;2022-08-23T12:42:27;27.42;;;13.07;;
71806;SDS011;59655;42.590;23.364;2022-08-23T12:45:06;18.70;;;11.50;;
71806;SDS011;59655;42.590;23.364;2022-08-23T12:47:32;22.33;;;11.50;;
71806;SDS011;59655;42.590;23.364;2022-08-23T12:50:04;23.95;;;12.43;;
71806;SDS011;59655;42.590;23.364;2022-08-23T12:52:36;18.85;;;12.15;;
71806;SDS011;59655;42.590;23.364;2022-08-23T12:55:11;22.23;;;11.93;;
71806;SDS011;59655;42.590;23.364;2022-08-23T12:57:39;24.58;;;11.40;;
71806;SDS011;59655;42.590;23.364;2022-08-23T13:02:38;18.55;;;10.98;;
71806;SDS011;59655;42.590;23.364;2022-08-23T13:05:09;17.52;;;10.98;;
71806;SDS011;59655;42.590;23.364;2022-08-23T13:07:57;18.27;;;11.18;;
71806;SDS011;59655;42.590;23.364;2022-08-23T13:10:30;21.15;;;11.65;;
71806;SDS011;59655;42.590;23.364;2022-08-23T13:12:56;19.70;;;11.25;;
71806;SDS011;59655;42.590;23.364;2022-08-23T13:15:42;20.05;;;11.38;;
71806;SDS011;59655;42.590;23.364;2022-08-23T13:18:29;16.48;;;11.38;;
71806;SDS011;59655;42.590;23.364;2022-08-23T13:21:38;20.55;;;11.27;;
71806;SDS011;59655;42.590;23.364;2022-08-23T13:23:47;19.88;;;12.57;;
71806;SDS011;59655;42.590;23.364;2022-08-23T13:26:34;21.45;;;12.13;;
71806;SDS011;59655;42.590;23.364;2022-08-23T13:31:59;23.05;;;13.48;;
71806;SDS011;59655;42.590;23.364;2022-08-23T13:37:02;20.60;;;12.23;;
71806;SDS011;59655;42.590;23.364;2022-08-23T13:39:53;19.65;;;12.02;;
71806;SDS011;59655;42.590;23.364;2022-08-23T13:45:29;16.73;;;10.05;;
71806;SDS011;59655;42.590;23.364;2022-08-23T13:48:13;17.65;;;9.93;;
71806;SDS011;59655;42.590;23.364;2022-08-23T13:50:45;19.85;;;10.30;;
71806;SDS011;59655;42.590;23.364;2022-08-23T13:53:13;17.42;;;9.93;;
71806;SDS011;59655;42.590;23.364;2022-08-23T13:55:43;16.83;;;9.68;;
71806;SDS011;59655;42.590;23.364;2022-08-23T13:58:27;16.65;;;10.18;;
71806;SDS011;59655;42.590;23.364;2022-08-23T14:01:00;18.52;;;10.05;;
71806;SDS011;59655;42.590;23.364;2022-08-23T14:03:48;14.60;;;8.70;;
71806;SDS011;59655;42.590;23.364;2022-08-23T14:06:16;19.08;;;8.38;;
71806;SDS011;59655;42.590;23.364;2022-08-23T14:08:42;21.95;;;12.50;;
71806;SDS011;59655;42.590;23.364;2022-08-23T14:11:07;11.45;;;7.35;;
71806;SDS011;59655;42.590;23.364;2022-08-23T14:13:35;17.23;;;8.38;;
71806;SDS011;59655;42.590;23.364;2022-08-23T14:16:05;8.93;;;5.25;;
71806;SDS011;59655;42.590;23.364;2022-08-23T14:18:32;8.38;;;4.28;;
71806;SDS011;59655;42.590;23.364;2022-08-23T14:20:58;10.63;;;4.18;;
71806;SDS011;59655;42.590;23.364;2022-08-23T14:23:23;9.00;;;3.45;;
71806;SDS011;59655;42.590;23.364;2022-08-23T14:25:51;9.35;;;4.35;;
71806;SDS011;59655;42.590;23.364;2022-08-23T14:28:19;8.25;;;4.22;;
71806;SDS011;59655;42.590;23.364;2022-08-23T14:30:47;7.93;;;4.60;;
71806;SDS011;59655;42.590;23.364;2022-08-23T14:33:12;7.15;;;4.05;;
71806;SDS011;59655;42.590;23.364;2022-08-23T14:35:38;7.88;;;4.15;;
71806;SDS011;59655;42.590;23.364;2022-08-23T14:38:03;7.43;;;4.15;;
71806;SDS011;59655;42.590;23.364;2022-08-23T14:40:30;7.45;;;4.10;;
71806;SDS011;59655;42.590;23.364;2022-08-23T14:42:55;9.48;;;3.85;;
71806;SDS011;59655;42.590;23.364;2022-08-23T14:45:21;6.82;;;4.35;;
71806;SDS011;59655;42.590;23.364;2022-08-23T14:47:47;7.50;;;4.32;;
71806;SDS011;59655;42.590;23.364;2022-08-23T14:50:13;9.15;;;5.13;;
71806;SDS011;59655;42.590;23.364;2022-08-23T14:52:41;11.63;;;4.93;;
71806;SDS011;59655;42.590;23.364;2022-08-23T14:55:09;9.50;;;5.75;;
71806;SDS011;59655;42.590;23.364;2022-08-23T14:57:35;10.68;;;5.75;;
71806;SDS011;59655;42.590;23.364;2022-08-23T15:00:00;16.40;;;7.30;;
71806;SDS011;59655;42.590;23.364;2022-08-23T15:02:26;13.05;;;7.65;;
71806;SDS011;59655;42.590;23.364;2022-08-23T15:04:53;12.88;;;8.20;;
71806;SDS011;59655;42.590;23.364;2022-08-23T15:07:19;13.65;;;8.07;;
71806;SDS011;59655;42.590;23.364;2022-08-23T15:09:49;13.50;;;7.88;;
71806;SDS011;59655;42.590;23.364;2022-08-23T15:12:16;14.77;;;7.72;;
71806;SDS011;59655;42.590;23.364;2022-08-23T15:14:43;12.88;;;8.25;;
71806;SDS011;59655;42.590;23.364;2022-08-23T15:17:09;14.73;;;8.52;;
71806;SDS011;59655;42.590;23.364;2022-08-23T15:19:34;13.32;;;9.18;;
71806;SDS011;59655;42.590;23.364;2022-08-23T15:21:59;14.15;;;8.50;;
71806;SDS011;59655;42.590;23.364;2022-08-23T15:24:25;14.77;;;8.30;;
71806;SDS011;59655;42.590;23.364;2022-08-23T15:26:50;12.18;;;8.00;;
71806;SDS011;59655;42.590;23.364;2022-08-23T15:29:18;12.85;;;8.52;;
71806;SDS011;59655;42.590;23.364;2022-08-23T15:31:44;13.52;;;8.48;;
71806;SDS011;59655;42.590;23.364;2022-08-23T15:34:09;13.23;;;8.48;;
71806;SDS011;59655;42.590;23.364;2022-08-23T15:36:35;12.45;;;8.45;;
71806;SDS011;59655;42.590;23.364;2022-08-23T15:39:04;14.60;;;8.38;;
71806;SDS011;59655;42.590;23.364;2022-08-23T15:41:29;14.48;;;7.63;;
71806;SDS011;59655;42.590;23.364;2022-08-23T15:43:55;15.43;;;8.75;;
71806;SDS011;59655;42.590;23.364;2022-08-23T15:46:21;13.00;;;7.50;;
71806;SDS011;59655;42.590;23.364;2022-08-23T15:48:50;16.63;;;8.68;;
71806;SDS011;59655;42.590;23.364;2022-08-23T15:51:17;14.55;;;7.90;;
71806;SDS011;59655;42.590;23.364;2022-08-23T15:53:43;13.95;;;7.75;;
71806;SDS011;59655;42.590;23.364;2022-08-23T15:56:15;10.70;;;7.10;;
71806;SDS011;59655;42.590;23.364;2022-08-23T15:58:44;10.88;;;6.70;;
71806;SDS011;59655;42.590;23.364;2022-08-23T16:01:10;15.27;;;8.32;;
71806;SDS011;59655;42.590;23.364;2022-08-23T16:03:36;14.68;;;8.65;;
71806;SDS011;59655;42.590;23.364;2022-08-23T16:06:03;16.40;;;9.70;;
71806;SDS011;59655;42.590;23.364;2022-08-23T16:08:30;12.85;;;8.52;;
71806;SDS011;59655;42.590;23.364;2022-08-23T16:10:58;14.57;;;8.68;;
71806;SDS011;59655;42.590;23.364;2022-08-23T16:13:26;16.33;;;9.02;;
71806;SDS011;59655;42.590;23.364;2022-08-23T16:15:52;16.33;;;9.00;;
71806;SDS011;59655;42.590;23.364;2022-08-23T16:18:17;15.32;;;8.75;;
71806;SDS011;59655;42.590;23.364;2022-08-23T16:20:43;15.60;;;9.20;;
71806;SDS011;59655;42.590;23.364;2022-08-23T16:23:09;15.15;;;9.15;;
71806;SDS011;59655;42.590;23.364;2022-08-23T16:25:35;15.80;;;9.60;;
71806;SDS011;59655;42.590;23.364;2022-08-23T16:28:02;18.45;;;10.93;;
71806;SDS011;59655;42.590;23.364;2022-08-23T16:30:28;24.70;;;11.73;;
71806;SDS011;59655;42.590;23.364;2022-08-23T16:32:54;21.40;;;10.57;;
71806;SDS011;59655;42.590;23.364;2022-08-23T16:35:20;36.63;;;25.80;;
71806;SDS011;59655;42.590;23.364;2022-08-23T16:37:46;20.88;;;8.90;;
71806;SDS011;59655;42.590;23.364;2022-08-23T16:40:13;13.40;;;8.38;;
71806;SDS011;59655;42.590;23.364;2022-08-23T16:42:39;17.33;;;8.35;;
71806;SDS011;59655;42.590;23.364;2022-08-23T16:45:05;15.82;;;7.65;;
71806;SDS011;59655;42.590;23.364;2022-08-23T16:47:31;16.17;;;8.38;;
71806;SDS011;59655;42.590;23.364;2022-08-23T16:50:01;17.80;;;8.60;;
71806;SDS011;59655;42.590;23.364;2022-08-23T16:52:27;21.05;;;9.38;;
71806;SDS011;59655;42.590;23.364;2022-08-23T16:54:52;17.70;;;8.20;;